Time;durP1;ratioP1;P1;durP2;ratioP2;P2;SDS_P1;SDS_P2;PMS_P1;PMS_P2;Temp;Humidity;BMP_temperature;BMP_pressure;BME280_temperature;BME280_humidity;BME280_pressure;Samples;Min_cycle;Max_cycle;Signal;HPM_P1;HPM_P2
2023/02/07 00:00:43;;;;;;;78.57;22.45;;;;;;;-0.02;100.00;103907.22;5269109;28;20024;-77
2023/02/07 00:03:14;;;;;;;66.85;22.23;;;;;;;0.05;100.00;103913.25;5247370;28;20032;-77
2023/02/07 00:05:44;;;;;;;75.45;25.88;;;;;;;0.13;100.00;103911.38;5278517;28;20485;-77
2023/02/07 00:08:15;;;;;;;80.38;25.23;;;;;;;0.22;100.00;103903.31;5246280;28;20032;-77
2023/02/07 00:10:45;;;;;;;101.22;26.60;;;;;;;0.44;100.00;103909.97;5264497;28;20457;-77
2023/02/07 00:13:15;;;;;;;77.32;24.27;;;;;;;0.48;100.00;103906.41;5230475;28;20115;-77
2023/02/07 00:15:50;;;;;;;82.28;24.27;;;;;;;0.45;100.00;103905.56;5252351;28;20392;-78
2023/02/07 00:18:20;;;;;;;73.37;25.40;;;;;;;0.37;100.00;103897.78;5254493;28;20133;-78
2023/02/07 00:21:12;;;;;;;73.68;22.63;;;;;;;0.28;100.00;103895.31;5277894;28;20357;-77
2023/02/07 00:23:43;;;;;;;73.43;21.08;;;;;;;0.17;100.00;103879.63;5271858;28;20032;-78
2023/02/07 00:26:15;;;;;;;62.33;22.17;;;;;;;0.09;100.00;103889.44;5290612;28;20023;-77
2023/02/07 00:28:47;;;;;;;74.40;24.02;;;;;;;0.07;100.00;103893.88;5284500;28;20024;-77
2023/02/07 00:31:20;;;;;;;63.13;22.60;;;;;;;0.06;100.00;103886.88;5263282;28;20023;-77
2023/02/07 00:33:54;;;;;;;79.88;22.80;;;;;;;0.02;100.00;103889.56;5248319;28;20051;-77
2023/02/07 00:36:26;;;;;;;60.40;22.55;;;;;;;-0.07;100.00;103880.88;5270363;28;20126;-77
2023/02/07 00:38:58;;;;;;;59.20;21.45;;;;;;;-0.12;100.00;103885.38;5271605;28;20026;-77
2023/02/07 00:41:30;;;;;;;62.80;22.83;;;;;;;-0.18;100.00;103881.97;5254638;28;20020;-78
2023/02/07 00:44:00;;;;;;;65.65;21.88;;;;;;;-0.24;100.00;103882.91;5261286;28;20033;-77
2023/02/07 00:46:31;;;;;;;62.58;23.05;;;;;;;-0.31;100.00;103886.53;5271522;28;20091;-77
2023/02/07 00:49:02;;;;;;;69.60;22.80;;;;;;;-0.36;100.00;103885.72;5245946;28;20030;-77
2023/02/07 00:51:33;;;;;;;68.18;22.50;;;;;;;-0.41;100.00;103877.88;5275555;28;20102;-78
2023/02/07 00:54:04;;;;;;;68.63;21.33;;;;;;;-0.43;100.00;103878.78;5289784;28;20516;-77
2023/02/07 00:56:35;;;;;;;88.30;24.73;;;;;;;-0.44;100.00;103884.97;5250395;28;20058;-78
2023/02/07 00:59:05;;;;;;;83.32;22.27;;;;;;;-0.49;100.00;103889.44;5250911;28;20016;-77
2023/02/07 01:01:36;;;;;;;69.05;22.02;;;;;;;-0.55;100.00;103879.84;5268197;28;20426;-77
2023/02/07 01:04:06;;;;;;;71.07;23.95;;;;;;;-0.60;100.00;103874.63;5268531;28;20031;-77
2023/02/07 01:06:37;;;;;;;79.25;22.63;;;;;;;-0.64;100.00;103898.41;5278400;28;20046;-77
2023/02/07 01:09:07;;;;;;;69.90;23.83;;;;;;;-0.71;100.00;103887.06;5271102;28;20480;-77
2023/02/07 01:11:38;;;;;;;71.57;23.83;;;;;;;-0.74;100.00;103881.84;5277748;28;20554;-77
2023/02/07 01:14:09;;;;;;;73.45;24.08;;;;;;;-0.79;100.00;103892.44;5268250;28;20207;-77
2023/02/07 01:16:41;;;;;;;66.22;23.33;;;;;;;-0.83;100.00;103892.50;5281682;28;20027;-77
2023/02/07 01:19:12;;;;;;;66.93;22.90;;;;;;;-0.89;100.00;103876.75;5281978;28;20389;-77
2023/02/07 01:21:42;;;;;;;73.80;24.65;;;;;;;-0.92;100.00;103871.50;5267616;28;20189;-77
2023/02/07 01:24:13;;;;;;;67.43;22.63;;;;;;;-0.96;100.00;103870.66;5276951;28;20028;-77
2023/02/07 01:26:43;;;;;;;70.93;23.17;;;;;;;-1.01;100.00;103882.16;5286926;28;20502;-77
2023/02/07 01:29:14;;;;;;;79.15;25.38;;;;;;;-1.02;100.00;103875.16;5268469;28;20101;-77
2023/02/07 01:31:45;;;;;;;91.85;26.83;;;;;;;-1.00;100.00;103874.25;5280904;28;20030;-77
2023/02/07 01:34:15;;;;;;;74.00;26.85;;;;;;;-1.02;100.00;103875.16;5249039;28;20115;-77
2023/02/07 01:36:46;;;;;;;88.95;25.60;;;;;;;-1.09;100.00;103876.97;5281326;28;20024;-76
2023/02/07 01:39:16;;;;;;;73.80;23.90;;;;;;;-1.15;100.00;103875.28;5267992;28;20055;-77
2023/02/07 01:41:46;;;;;;;90.38;24.35;;;;;;;-1.19;100.00;103877.97;5281847;28;20019;-77
2023/02/07 01:44:36;;;;;;;73.68;23.20;;;;;;;-1.23;100.00;103897.34;5267982;28;20024;-77
2023/02/07 01:47:11;;;;;;;78.97;23.70;;;;;;;-1.26;100.00;103894.72;5267530;28;20021;-77
2023/02/07 01:49:42;;;;;;;78.13;25.10;;;;;;;-1.28;100.00;103891.25;5281543;28;20020;-77
2023/02/07 01:52:18;;;;;;;87.13;26.33;;;;;;;-1.28;100.00;103888.59;5267863;28;20445;-77
2023/02/07 01:54:52;;;;;;;79.80;24.30;;;;;;;-1.26;100.00;103886.81;5288375;28;20081;-77
2023/02/07 01:57:23;;;;;;;79.97;25.42;;;;;;;-1.13;100.00;103885.81;5273795;28;20023;-77
2023/02/07 01:59:55;;;;;;;86.55;26.40;;;;;;;-1.05;100.00;103892.75;5269885;27;20111;-77
2023/02/07 02:02:29;;;;;;;85.55;25.55;;;;;;;-1.02;100.00;103883.91;5284181;28;20059;-76
2023/02/07 02:05:00;;;;;;;78.60;25.93;;;;;;;-1.02;100.00;103881.28;5278756;28;20108;-77
2023/02/07 02:07:31;;;;;;;79.53;24.92;;;;;;;-1.08;100.00;103871.69;5253541;28;20403;-76
2023/02/07 02:10:08;;;;;;;88.85;25.83;;;;;;;-1.17;100.00;103865.66;5276850;28;20434;-76
2023/02/07 02:12:51;;;;;;;85.28;25.85;;;;;;;-1.25;100.00;103872.78;5274179;28;20030;-77
2023/02/07 02:15:42;;;;;;;72.05;22.60;;;;;;;-1.34;100.00;103884.28;5288181;28;20030;-77
2023/02/07 02:18:23;;;;;;;60.33;22.17;;;;;;;-1.48;100.00;103870.38;5257962;28;20020;-77
2023/02/07 02:21:01;;;;;;;65.63;23.65;;;;;;;-1.60;100.00;103872.22;5248899;28;20120;-77
2023/02/07 02:24:01;;;;;;;74.53;23.95;;;;;;;-1.70;100.00;103864.44;5269541;28;20500;-77
2023/02/07 02:26:46;;;;;;;79.38;24.45;;;;;;;-1.80;100.00;103870.66;5288177;28;20107;-77
2023/02/07 02:29:35;;;;;;;;;;;;;;;-1.88;100.00;103876.84;5289602;28;20035;-77
2023/02/07 02:32:35;;;;;;;76.20;25.17;;;;;;;-1.92;100.00;103877.75;5268113;28;19912;-77
2023/02/07 02:35:09;;;;;;;84.00;25.52;;;;;;;-1.91;100.00;103878.63;5267095;28;20106;-76
2023/02/07 02:37:49;;;;;;;83.68;27.88;;;;;;;-1.82;100.00;103879.41;5278652;28;20027;-77
2023/02/07 02:40:55;;;;;;;87.30;26.35;;;;;;;-1.81;100.00;103882.91;5274024;28;20020;-77
2023/02/07 02:43:45;;;;;;;71.18;26.20;;;;;;;-1.87;100.00;103889.09;5287987;28;20036;-77
2023/02/07 02:46:22;;;;;;;83.20;26.42;;;;;;;-1.90;100.00;103881.25;5273715;28;20012;-76
2023/02/07 02:48:53;;;;;;;74.90;26.35;;;;;;;-1.95;100.00;103883.06;5276603;28;20138;-76
2023/02/07 02:51:26;;;;;;;87.95;28.13;;;;;;;-2.00;100.00;103891.88;5261711;28;20043;-76
2023/02/07 02:53:59;;;;;;;96.22;29.25;;;;;;;-2.05;100.00;103888.41;5280190;28;20107;-76
2023/02/07 02:56:48;;;;;;;73.60;23.88;;;;;;;-2.10;100.00;103880.53;5273653;28;20023;-76
2023/02/07 02:59:37;;;;;;;94.10;30.08;;;;;;;-2.14;100.00;103876.16;5267092;28;20027;-76
2023/02/07 03:02:28;;;;;;;106.28;30.77;;;;;;;-2.16;100.00;103859.50;5256134;28;20024;-76
2023/02/07 03:05:05;;;;;;;129.75;32.67;;;;;;;-2.19;100.00;103857.78;5266444;28;20020;-76
2023/02/07 03:08:02;;;;;;;103.25;29.75;;;;;;;-2.26;100.00;103857.81;5271000;28;20027;-76
2023/02/07 03:11:01;;;;;;;87.60;27.98;;;;;;;-2.30;100.00;103857.00;5266377;28;20080;-76
2023/02/07 03:14:04;;;;;;;90.63;27.70;;;;;;;-2.28;100.00;103862.22;5267057;28;20442;-76
2023/02/07 03:16:54;;;;;;;103.65;30.85;;;;;;;-2.32;100.00;103860.50;5287950;28;20126;-76
2023/02/07 03:19:34;;;;;;;108.97;30.88;;;;;;;-2.36;100.00;103857.00;5248001;28;20027;-77
2023/02/07 03:22:12;;;;;;;118.43;32.22;;;;;;;-2.39;100.00;103857.91;5265658;28;20054;-76
2023/02/07 03:24:48;;;;;;;102.60;29.70;;;;;;;-2.41;100.00;103859.69;5279194;28;20019;-76
2023/02/07 03:27:21;;;;;;;122.72;32.10;;;;;;;-2.41;100.00;103854.44;5279608;28;20189;-77
2023/02/07 03:29:56;;;;;;;127.47;33.97;;;;;;;-2.36;100.00;103857.91;5247902;28;20020;-76
2023/02/07 03:32:33;;;;;;;109.00;33.08;;;;;;;-2.29;100.00;103848.22;5257728;28;20053;-77
2023/02/07 03:35:12;;;;;;;123.20;35.83;;;;;;;-2.24;100.00;103853.44;5282327;28;20068;-77
2023/02/07 03:37:49;;;;;;;128.63;35.92;;;;;;;-2.24;100.00;103845.56;5265763;28;20035;-77
2023/02/07 03:40:20;;;;;;;105.82;34.63;;;;;;;-2.25;100.00;103849.06;5265937;28;20020;-77
2023/02/07 03:42:51;;;;;;;125.45;36.08;;;;;;;-2.22;100.00;103849.91;5265620;28;20115;-77
2023/02/07 03:45:21;;;;;;;118.75;35.00;;;;;;;-2.18;100.00;103850.75;5265766;28;20107;-77
2023/02/07 03:47:52;;;;;;;119.35;36.50;;;;;;;-2.19;100.00;103855.16;5265262;28;20027;-77
2023/02/07 03:50:22;;;;;;;132.52;37.03;;;;;;;-2.16;100.00;103859.50;5276430;28;20038;-77
2023/02/07 03:52:53;;;;;;;143.23;38.10;;;;;;;-2.14;100.00;103856.00;5272815;28;20076;-77
2023/02/07 03:55:23;;;;;;;133.07;38.22;;;;;;;-2.13;100.00;103852.47;5286479;28;20050;-77
2023/02/07 03:57:54;;;;;;;132.93;38.10;;;;;;;-2.14;100.00;103841.97;5279317;28;20095;-77
2023/02/07 04:00:24;;;;;;;123.03;39.17;;;;;;;-2.15;100.00;103846.38;5278254;28;20019;-76
2023/02/07 04:02:55;;;;;;;132.23;38.47;;;;;;;-2.14;100.00;103844.59;5278674;28;20425;-76
2023/02/07 04:05:25;;;;;;;132.30;38.60;;;;;;;-2.14;100.00;103850.72;5279372;28;20479;-77
2023/02/07 04:07:56;;;;;;;140.07;39.10;;;;;;;-2.15;100.00;103842.88;5264812;28;20032;-77
2023/02/07 04:10:27;;;;;;;117.25;36.50;;;;;;;-2.17;100.00;103839.34;5280172;28;20035;-77
2023/02/07 04:12:58;;;;;;;139.38;38.30;;;;;;;-2.22;100.00;103844.66;5277788;28;20085;-76
2023/02/07 04:15:28;;;;;;;109.95;34.50;;;;;;;-2.25;100.00;103841.19;5265198;28;20469;-76
2023/02/07 04:17:59;;;;;;;148.07;39.38;;;;;;;-2.27;100.00;103841.16;5265037;28;20499;-76
2023/02/07 04:20:29;;;;;;;136.20;36.25;;;;;;;-2.27;100.00;103846.44;5264536;28;20047;-77
2023/02/07 04:23:00;;;;;;;156.77;39.50;;;;;;;-2.28;100.00;103847.31;5265049;28;20078;-76
2023/02/07 04:25:30;;;;;;;132.45;36.28;;;;;;;-2.29;100.00;103848.22;5269945;28;20101;-76
2023/02/07 04:28:01;;;;;;;132.13;35.42;;;;;;;-2.33;100.00;103843.84;5273482;28;20110;-76
2023/02/07 04:30:32;;;;;;;148.13;37.15;;;;;;;-2.37;100.00;103844.75;5264729;28;20035;-76
2023/02/07 04:33:02;;;;;;;161.98;37.22;;;;;;;-2.39;100.00;103841.25;5264572;28;20035;-76
2023/02/07 04:35:33;;;;;;;156.55;36.05;;;;;;;-2.42;100.00;103849.16;5278678;28;20443;-76
2023/02/07 04:38:04;;;;;;;159.43;36.58;;;;;;;-2.47;100.00;103846.56;5278033;28;20019;-77
2023/02/07 04:40:34;;;;;;;148.02;36.83;;;;;;;-2.48;100.00;103851.84;5264853;28;20077;-76
2023/02/07 04:43:05;;;;;;;130.73;33.28;;;;;;;-2.50;100.00;103846.59;5265337;28;20056;-76
2023/02/07 04:45:35;;;;;;;116.45;33.83;;;;;;;-2.50;100.00;103851.84;5274375;28;20026;-76
2023/02/07 04:48:06;;;;;;;122.03;36.13;;;;;;;-2.52;100.00;103850.09;5271648;28;20064;-76
2023/02/07 04:50:36;;;;;;;149.55;37.45;;;;;;;-2.56;100.00;103851.88;5285724;28;20030;-76
2023/02/07 04:53:07;;;;;;;120.22;35.67;;;;;;;-2.57;100.00;103850.13;5281213;28;20016;-76
2023/02/07 04:55:37;;;;;;;109.88;34.50;;;;;;;-2.59;100.00;103853.66;5276926;28;20030;-77
2023/02/07 04:58:08;;;;;;;120.78;34.92;;;;;;;-2.61;100.00;103853.69;5272981;28;20480;-77
2023/02/07 05:00:39;;;;;;;123.63;36.58;;;;;;;-2.61;100.00;103861.56;5269428;28;20392;-76
2023/02/07 05:03:09;;;;;;;133.50;36.30;;;;;;;-2.60;100.00;103855.41;5264677;28;20059;-77
2023/02/07 05:05:41;;;;;;;157.68;39.42;;;;;;;-2.59;100.00;103861.53;5249154;28;20028;-76
2023/02/07 05:08:12;;;;;;;143.52;37.55;;;;;;;-2.61;100.00;103861.56;5275598;28;20094;-76
2023/02/07 05:10:43;;;;;;;138.73;36.08;;;;;;;-2.61;100.00;103858.94;5263418;28;20312;-77
2023/02/07 05:13:13;;;;;;;143.70;37.85;;;;;;;-2.63;100.00;103855.41;5280106;28;20106;-76
2023/02/07 05:15:44;;;;;;;124.40;35.58;;;;;;;-2.63;100.00;103852.78;5257710;28;20468;-76
2023/02/07 05:18:14;;;;;;;150.82;39.90;;;;;;;-2.64;100.00;103851.91;5276557;28;20447;-77
2023/02/07 05:20:45;;;;;;;143.65;37.72;;;;;;;-2.64;100.00;103859.81;5267809;28;20023;-76
2023/02/07 05:23:16;;;;;;;139.20;39.17;;;;;;;-2.64;100.00;103857.16;5268322;28;20384;-76
2023/02/07 05:25:48;;;;;;;141.63;38.35;;;;;;;-2.67;100.00;103861.56;5271171;28;20148;-76
2023/02/07 05:28:19;;;;;;;170.00;39.97;;;;;;;-2.72;100.00;103852.81;5273585;28;20032;-77
2023/02/07 05:30:54;;;;;;;208.20;41.97;;;;;;;-2.76;100.00;103866.84;5276953;28;20076;-76
2023/02/07 05:33:24;;;;;;;167.32;41.47;;;;;;;-2.82;100.00;103872.16;5289001;28;20031;-76
2023/02/07 05:35:55;;;;;;;191.07;39.10;;;;;;;-2.83;100.00;103867.78;5278084;28;20020;-76
2023/02/07 05:38:25;;;;;;;192.18;42.30;;;;;;;-2.83;100.00;103860.75;5263380;28;20404;-76
2023/02/07 05:40:56;;;;;;;310.90;48.67;;;;;;;-2.80;100.00;103878.28;5267990;28;20103;-76
2023/02/07 05:43:26;;;;;;;155.02;41.13;;;;;;;-2.81;100.00;103869.53;5274068;28;20022;-76
2023/02/07 05:45:56;;;;;;;406.88;51.55;;;;;;;-2.80;100.00;103875.66;5257226;28;20028;-76
2023/02/07 05:48:27;;;;;;;218.57;45.55;;;;;;;-2.81;100.00;103879.13;5274520;28;20396;-77
2023/02/07 05:50:58;;;;;;;239.60;43.65;;;;;;;-2.84;100.00;103879.16;5275067;28;20492;-76
2023/02/07 05:53:28;;;;;;;395.15;50.63;;;;;;;-2.91;100.00;103883.59;5289162;28;20505;-76
2023/02/07 05:55:59;;;;;;;527.92;62.53;;;;;;;-3.00;100.00;103884.47;5256739;28;20028;-76
2023/02/07 05:58:29;;;;;;;272.45;43.70;;;;;;;-3.08;100.00;103883.63;5281239;28;20024;-76
2023/02/07 06:00:59;;;;;;;175.65;38.17;;;;;;;-3.14;100.00;103902.91;5262848;28;20069;-76
2023/02/07 06:03:30;;;;;;;177.95;40.35;;;;;;;-3.18;100.00;103906.41;5278922;28;20028;-76
2023/02/07 06:06:00;;;;;;;166.10;38.72;;;;;;;-3.19;100.00;103915.16;5269643;28;20049;-76
2023/02/07 06:08:31;;;;;;;120.65;36.25;;;;;;;-3.22;100.00;103909.03;5267308;28;20035;-76
2023/02/07 06:11:01;;;;;;;135.10;39.83;;;;;;;-3.23;100.00;103909.91;5267263;28;20032;-76
2023/02/07 06:13:32;;;;;;;129.93;38.00;;;;;;;-3.25;100.00;103907.31;5280904;28;20023;-76
2023/02/07 06:16:03;;;;;;;237.73;44.03;;;;;;;-3.24;100.00;103913.44;5280919;28;20059;-76
2023/02/07 06:18:33;;;;;;;148.68;38.47;;;;;;;-3.27;100.00;103913.41;5246354;28;20110;-76
2023/02/07 06:21:04;;;;;;;143.57;41.08;;;;;;;-3.29;100.00;103918.69;5266901;28;20107;-76
2023/02/07 06:23:35;;;;;;;134.40;40.13;;;;;;;-3.34;100.00;103917.81;5266627;28;20036;-76
2023/02/07 06:26:05;;;;;;;125.75;37.90;;;;;;;-3.34;100.00;103922.19;5267370;28;20031;-76
2023/02/07 06:28:36;;;;;;;127.95;35.50;;;;;;;-3.39;100.00;103919.56;5284074;28;20027;-76
2023/02/07 06:31:06;;;;;;;116.82;37.03;;;;;;;-3.45;100.00;103933.56;5276854;28;20020;-76
2023/02/07 06:33:36;;;;;;;125.28;38.97;;;;;;;-3.54;100.00;103924.81;5266815;28;20126;-76
2023/02/07 06:36:07;;;;;;;130.82;37.40;;;;;;;-3.58;100.00;103931.81;5267087;28;20024;-76
2023/02/07 06:38:38;;;;;;;118.07;37.90;;;;;;;-3.61;100.00;103937.09;5283311;28;20103;-76
2023/02/07 06:41:10;;;;;;;115.90;36.90;;;;;;;-3.66;100.00;103929.22;5282833;28;20027;-76
2023/02/07 06:43:40;;;;;;;124.90;36.97;;;;;;;-3.70;100.00;103943.19;5267347;28;20020;-76
2023/02/07 06:46:11;;;;;;;111.28;35.20;;;;;;;-3.73;100.00;103934.44;5267118;28;20020;-76
2023/02/07 06:48:41;;;;;;;114.90;35.67;;;;;;;-3.75;100.00;103941.44;5279228;28;20027;-76
2023/02/07 06:51:12;;;;;;;128.10;37.75;;;;;;;-3.79;100.00;103927.44;5266298;28;20488;-76
2023/02/07 06:53:42;;;;;;;123.75;38.38;;;;;;;-3.79;100.00;103934.44;5266903;28;20035;-76
2023/02/07 06:56:13;;;;;;;115.05;38.75;;;;;;;-3.79;100.00;103931.81;5270227;28;20103;-76
2023/02/07 06:58:43;;;;;;;132.80;40.22;;;;;;;-3.81;100.00;103936.19;5275878;28;20442;-76
2023/02/07 07:01:18;;;;;;;116.28;37.60;;;;;;;-3.83;100.00;103930.06;5266257;28;20446;-76
2023/02/07 07:03:50;;;;;;;116.18;38.33;;;;;;;-3.84;100.00;103929.19;5280475;28;20023;-76
2023/02/07 07:06:21;;;;;;;119.13;38.45;;;;;;;-3.86;100.00;103941.44;5287917;28;20034;-76
2023/02/07 07:08:51;;;;;;;130.40;38.78;;;;;;;-3.88;100.00;103942.28;5273341;28;20540;-76
2023/02/07 07:11:22;;;;;;;114.72;36.03;;;;;;;-3.88;100.00;103942.28;5277089;28;20447;-76
2023/02/07 07:13:52;;;;;;;128.05;36.50;;;;;;;-3.85;100.00;103942.31;5266101;28;20034;-76
2023/02/07 07:16:23;;;;;;;127.78;38.78;;;;;;;-3.83;100.00;103948.41;5265982;28;20023;-75
2023/02/07 07:18:53;;;;;;;131.73;37.78;;;;;;;-3.81;100.00;103950.19;5280189;28;20536;-75
2023/02/07 07:21:26;;;;;;;132.82;37.90;;;;;;;-3.79;100.00;103944.94;5278483;28;20094;-75
2023/02/07 07:23:57;;;;;;;137.80;39.42;;;;;;;-3.76;100.00;103937.09;5280919;28;20068;-76
2023/02/07 07:26:27;;;;;;;135.68;40.33;;;;;;;-3.72;100.00;103946.69;5279353;28;20032;-78
2023/02/07 07:28:59;;;;;;;133.68;38.85;;;;;;;-3.69;100.00;103949.31;5218153;28;20076;-80
2023/02/07 07:31:29;;;;;;;127.75;38.85;;;;;;;-3.68;100.00;103954.56;5278756;28;20063;-79
2023/02/07 07:34:00;;;;;;;133.57;38.88;;;;;;;-3.64;100.00;103958.06;5247821;28;20058;-75
2023/02/07 07:36:30;;;;;;;139.98;38.10;;;;;;;-3.61;100.00;103952.84;5265323;28;20032;-75
2023/02/07 07:39:01;;;;;;;145.00;39.15;;;;;;;-3.55;100.00;103958.06;5265925;28;20485;-75
2023/02/07 07:41:31;;;;;;;131.02;40.60;;;;;;;-3.51;100.00;103962.47;5279471;28;20020;-77
2023/02/07 07:44:02;;;;;;;128.05;38.83;;;;;;;-3.44;100.00;103956.31;5259178;28;20027;-75
2023/02/07 07:46:33;;;;;;;150.45;40.30;;;;;;;-3.32;100.00;103965.06;5281134;28;20101;-75
2023/02/07 07:49:03;;;;;;;138.50;41.25;;;;;;;-3.21;100.00;103971.22;5265399;28;20027;-76
2023/02/07 07:51:34;;;;;;;133.77;39.92;;;;;;;-3.07;100.00;103972.03;5265295;28;20028;-75
2023/02/07 07:54:04;;;;;;;156.73;43.40;;;;;;;-2.92;100.00;103966.75;5265463;28;20492;-75
2023/02/07 07:56:35;;;;;;;134.27;41.25;;;;;;;-2.73;100.00;103971.97;5265381;28;20470;-76
2023/02/07 07:59:05;;;;;;;130.93;39.80;;;;;;;-2.48;100.00;103964.88;5267090;27;20027;-78
2023/02/07 08:01:36;;;;;;;116.15;35.95;;;;;;;-2.19;100.00;103972.66;5274566;28;20015;-78
2023/02/07 08:04:06;;;;;;;104.03;35.05;;;;;;;-1.89;100.00;103977.72;5251610;28;20466;-75
2023/02/07 08:06:37;;;;;;;106.65;34.47;;;;;;;-1.55;100.00;103980.16;5265180;28;20035;-76
2023/02/07 08:09:07;;;;;;;87.97;32.38;;;;;;;-1.25;100.00;103978.16;5265514;28;20035;-76
2023/02/07 08:11:38;;;;;;;93.47;32.13;;;;;;;-1.00;100.00;103977.03;5276372;28;20397;-76
2023/02/07 08:14:08;;;;;;;80.75;29.10;;;;;;;-0.67;100.00;103982.81;5274358;28;20072;-76
2023/02/07 08:16:39;;;;;;;79.45;29.13;;;;;;;-0.40;100.00;103982.50;5276011;28;20039;-75
2023/02/07 08:19:09;;;;;;;74.50;26.38;;;;;;;-0.20;100.00;103974.34;5271186;28;20020;-76
2023/02/07 08:21:40;;;;;;;66.18;25.17;;;;;;;0.01;100.00;103977.59;5271441;28;20024;-76
2023/02/07 08:24:10;;;;;;;66.15;24.63;;;;;;;0.19;100.00;103972.00;5263626;28;20111;-77
2023/02/07 08:26:41;;;;;;;65.88;26.10;;;;;;;0.43;100.00;103979.56;5259155;28;20024;-76
2023/02/07 08:29:12;;;;;;;69.07;25.58;;;;;;;0.69;100.00;103972.97;5263838;28;20032;-76
2023/02/07 08:31:42;;;;;;;60.30;22.08;;;;;;;0.94;100.00;103974.28;5276771;28;20031;-76
2023/02/07 08:34:13;;;;;;;64.72;23.42;;;;;;;1.20;100.00;103972.94;5273730;28;20080;-76
2023/02/07 08:36:43;;;;;;;57.53;24.45;;;;;;;1.46;100.00;103973.31;5266390;28;20016;-76
2023/02/07 08:39:13;;;;;;;59.00;22.98;;;;;;;1.63;100.00;103972.97;5274955;28;20019;-76
2023/02/07 08:41:44;;;;;;;62.97;23.80;;;;;;;1.91;100.00;103964.41;5265925;28;20028;-76
2023/02/07 08:44:14;;;;;;;53.53;23.75;;;;;;;2.04;100.00;103972.06;5274496;28;20103;-75
2023/02/07 08:46:45;;;;;;;49.75;21.40;;;;;;;2.31;100.00;103967.91;5281150;28;20034;-75
2023/02/07 08:49:15;;;;;;;45.17;21.52;;;;;;;2.39;100.00;103964.19;5267140;28;20020;-76
2023/02/07 08:51:46;;;;;;;48.42;21.02;;;;;;;2.51;100.00;103955.94;5280877;28;20028;-75
2023/02/07 08:54:16;;;;;;;47.25;20.35;;;;;;;2.67;100.00;103962.59;5268748;28;20110;-75
2023/02/07 08:56:47;;;;;;;45.72;19.45;;;;;;;2.82;100.00;103959.56;5279534;28;20024;-75
2023/02/07 08:59:17;;;;;;;49.55;20.83;;;;;;;2.97;100.00;103960.06;5267379;27;20043;-75
2023/02/07 09:01:48;;;;;;;42.95;19.80;;;;;;;3.06;100.00;103959.78;5267108;28;20020;-75
2023/02/07 09:04:18;;;;;;;42.22;19.70;;;;;;;3.28;100.00;103966.28;5280505;28;20021;-76
2023/02/07 09:06:49;;;;;;;49.10;19.73;;;;;;;3.36;100.00;103968.69;5267181;28;20036;-75
2023/02/07 09:09:19;;;;;;;48.15;19.92;;;;;;;3.52;100.00;103964.72;5286530;28;20030;-75
2023/02/07 09:11:50;;;;;;;44.78;19.90;;;;;;;3.62;100.00;103965.31;5274408;28;20069;-75
2023/02/07 09:14:20;;;;;;;45.50;20.50;;;;;;;3.66;100.00;103963.41;5266217;28;20049;-76
2023/02/07 09:16:51;;;;;;;53.75;19.90;;;;;;;3.84;100.00;103957.56;5280181;28;20162;-75
2023/02/07 09:19:21;;;;;;;40.60;19.02;;;;;;;3.95;100.00;103958.09;5266979;28;20024;-76
2023/02/07 09:21:52;;;;;;;47.70;20.60;;;;;;;4.05;100.00;103961.34;5266562;28;20024;-76
2023/02/07 09:24:23;;;;;;;40.83;19.15;;;;;;;4.16;100.00;103957.41;5276828;28;20027;-76
2023/02/07 09:26:53;;;;;;;40.20;18.13;;;;;;;4.23;100.00;103958.13;5273786;28;20319;-76
2023/02/07 09:29:24;;;;;;;40.17;17.55;;;;;;;4.34;100.00;103960.41;5288301;28;20024;-77
2023/02/07 09:31:54;;;;;;;40.58;17.02;;;;;;;4.44;100.00;103951.22;5282683;28;20278;-76
2023/02/07 09:34:26;;;;;;;37.22;16.98;;;;;;;4.55;100.00;103950.88;5279838;28;20035;-76
2023/02/07 09:36:57;;;;;;;34.53;16.25;;;;;;;4.58;100.00;103954.28;5267339;28;20469;-76
2023/02/07 09:39:27;;;;;;;34.22;16.58;;;;;;;4.71;100.00;103948.56;5266863;28;20107;-76
2023/02/07 09:42:08;;;;;;;34.22;14.65;;;;;;;4.85;100.00;103949.81;5262795;28;20512;-76
2023/02/07 09:44:56;;;;;;;33.55;16.90;;;;;;;4.86;100.00;103948.03;5283392;28;20035;-77
2023/02/07 09:47:26;;;;;;;35.38;15.10;;;;;;;4.90;100.00;103942.53;5274311;28;20420;-76
2023/02/07 09:50:16;;;;;;;28.73;13.43;;;;;;;5.04;100.00;103947.38;5254952;28;20022;-76
2023/02/07 09:52:51;;;;;;;26.48;12.95;;;;;;;5.14;100.00;103942.59;5270419;28;20229;-76
2023/02/07 09:55:25;;;;;;;28.30;13.85;;;;;;;5.21;100.00;103936.13;5276997;28;20500;-76
2023/02/07 09:58:02;;;;;;;27.13;13.45;;;;;;;5.41;100.00;103941.56;5285974;28;20055;-76
2023/02/07 10:00:36;;;;;;;31.45;13.75;;;;;;;5.52;100.00;103938.50;5280797;28;20479;-76
2023/02/07 10:03:12;;;;;;;31.70;14.07;;;;;;;5.54;100.00;103939.31;5266168;28;20047;-76
2023/02/07 10:05:52;;;;;;;34.55;13.80;;;;;;;5.68;100.00;103938.81;5280261;28;20040;-75
2023/02/07 10:08:23;;;;;;;32.28;14.80;;;;;;;5.69;100.00;103943.22;5277558;28;20023;-76
2023/02/07 10:11:05;;;;;;;28.20;13.73;;;;;;;5.63;100.00;103951.44;5268055;28;20045;-76
2023/02/07 10:14:03;;;;;;;31.38;13.20;;;;;;;5.54;100.00;103936.66;5279966;28;20435;-76
2023/02/07 10:16:56;;;;;;;31.85;12.07;;;;;;;5.37;100.00;103947.97;5278001;28;20030;-76
2023/02/07 10:19:43;;;;;;;25.70;11.40;;;;;;;4.96;100.00;103943.25;5275048;28;20484;-75
2023/02/07 10:22:20;;;;;;;22.27;11.32;;;;;;;5.08;100.00;103945.50;5263444;28;20020;-75
2023/02/07 10:25:16;;;;;;;27.48;11.50;;;;;;;4.77;100.00;103949.22;5266053;28;20034;-76
2023/02/07 10:28:24;;;;;;;25.33;11.18;;;;;;;4.87;100.00;103950.66;5265942;28;20036;-75
2023/02/07 10:30:59;;;;;;;21.23;10.32;;;;;;;5.17;100.00;103935.38;5265831;28;20097;-75
2023/02/07 10:33:33;;;;;;;21.33;8.70;;;;;;;5.01;100.00;103933.31;5269230;28;20050;-75
2023/02/07 10:36:12;;;;;;;20.35;8.48;;;;;;;5.05;100.00;103925.16;5274245;28;20034;-75
2023/02/07 10:39:03;;;;;;;18.73;8.50;;;;;;;5.18;100.00;103933.59;5265304;28;20020;-75
2023/02/07 10:41:37;;;;;;;18.88;8.50;;;;;;;5.16;100.00;103925.63;5265267;28;20024;-75
2023/02/07 10:44:12;;;;;;;23.25;8.80;;;;;;;5.23;100.00;103928.09;5266014;28;20407;-75
2023/02/07 10:46:45;;;;;;;18.10;8.25;;;;;;;5.15;100.00;103931.88;5271767;28;20411;-75
2023/02/07 10:49:36;;;;;;;20.80;10.15;;;;;;;5.33;100.00;103929.50;5271817;28;20107;-75
2023/02/07 10:52:28;;;;;;;16.55;7.55;;;;;;;5.56;100.00;103939.25;5275463;28;20511;-75
2023/02/07 10:55:01;;;;;;;15.13;6.93;;;;;;;5.55;100.00;103932.22;5265596;28;20030;-75
2023/02/07 10:57:32;;;;;;;14.05;6.75;;;;;;;5.52;100.00;103932.31;5266552;28;20034;-74
2023/02/07 11:00:39;;;;;;;13.73;6.07;;;;;;;5.57;100.00;103933.00;5276302;28;20020;-75
2023/02/07 11:03:29;;;;;;;12.30;6.07;;;;;;;5.65;100.00;103923.81;5277380;28;20106;-75
2023/02/07 11:06:04;;;;;;;12.57;6.35;;;;;;;5.91;100.00;103927.25;5264845;28;20020;-75
2023/02/07 11:08:36;;;;;;;;;;;;;;;5.97;100.00;103921.69;5265221;28;20392;-75
2023/02/07 11:11:18;;;;;;;15.15;6.35;;;;;;;6.01;100.00;103914.44;5278304;28;19916;-75
2023/02/07 11:13:50;;;;;;;10.40;5.72;;;;;;;6.17;100.00;103908.41;5264880;28;20166;-75
2023/02/07 11:16:23;;;;;;;13.02;6.15;;;;;;;6.08;100.00;103908.81;5264848;28;20038;-75
2023/02/07 11:19:14;;;;;;;12.10;6.55;;;;;;;6.07;100.00;103903.53;5278208;28;20016;-75
2023/02/07 11:21:47;;;;;;;11.45;5.85;;;;;;;6.06;100.00;103905.34;5264536;28;20039;-75
2023/02/07 11:24:24;;;;;;;15.43;6.45;;;;;;;6.23;100.00;103910.00;5264425;28;20020;-75
2023/02/07 11:27:16;;;;;;;13.57;5.90;;;;;;;6.38;100.00;103896.03;5246914;28;20028;-75
2023/02/07 11:29:54;;;;;;;10.95;5.50;;;;;;;6.28;100.00;103893.81;5277571;28;20037;-75
2023/02/07 11:32:27;;;;;;;12.60;5.63;;;;;;;6.18;100.00;103896.84;5264763;28;20035;-74